Time;durP1;ratioP1;P1;durP2;ratioP2;P2;SDS_P1;SDS_P2;PMS_P1;PMS_P2;Temp;Humidity;BMP_temperature;BMP_pressure;BME280_temperature;BME280_humidity;BME280_pressure;Samples;Min_cycle;Max_cycle;Signal;HPM_P1;HPM_P2
2023/01/05 00:01:45;;;;;;;10.95;3.05;;;15.00;67.10;;;;;;5004463;28;20042;-50
2023/01/05 00:04:14;;;;;;;15.15;4.00;;;15.00;67.30;;;;;;5009119;28;20406;-51
2023/01/05 00:06:42;;;;;;;12.50;4.15;;;15.00;67.20;;;;;;5009899;28;20046;-50
2023/01/05 00:09:12;;;;;;;17.58;4.25;;;15.00;67.20;;;;;;5000494;28;20129;-48
2023/01/05 00:22:56;;;;;;;15.00;2.88;;;15.00;67.00;;;;;;5005957;28;20116;-48
2023/01/05 00:25:29;;;;;;;16.83;3.97;;;15.00;67.00;;;;;;5009336;28;20125;-50
2023/01/05 00:27:57;;;;;;;;;;;15.00;67.00;;;;;;5004368;28;20057;-51
2023/01/05 00:30:27;;;;;;;14.75;4.13;;;15.00;67.30;;;;;;5008035;28;19956;-48
2023/01/05 00:32:54;;;;;;;11.93;3.53;;;15.00;66.90;;;;;;5008530;28;20038;-51
2023/01/05 00:35:23;;;;;;;9.68;3.10;;;14.90;66.90;;;;;;5005240;28;20577;-52
2023/01/05 00:37:50;;;;;;;13.48;3.67;;;15.00;67.00;;;;;;5008824;28;20116;-50
2023/01/05 00:40:24;;;;;;;12.93;3.88;;;14.90;66.90;;;;;;5002853;28;20084;-47
2023/01/05 00:42:54;;;;;;;13.07;3.15;;;14.90;67.00;;;;;;5007140;28;20096;-52
2023/01/05 00:45:23;;;;;;;17.65;5.05;;;14.90;67.00;;;;;;5002093;28;20112;-53
2023/01/05 00:47:52;;;;;;;14.13;3.30;;;14.90;67.10;;;;;;5011105;28;20044;-55
2023/01/05 00:50:20;;;;;;;19.45;3.63;;;14.90;67.00;;;;;;5003853;28;20069;-51
2023/01/05 00:52:48;;;;;;;15.88;3.55;;;14.80;67.00;;;;;;5011708;28;20544;-48
2023/01/05 00:55:19;;;;;;;14.23;3.30;;;14.80;66.90;;;;;;5009125;28;20042;-48
2023/01/05 00:57:46;;;;;;;9.35;3.85;;;14.80;67.00;;;;;;5011083;28;20049;-50
2023/01/05 01:00:19;;;;;;;16.95;4.40;;;14.80;67.00;;;;;;5011037;28;20069;-47
2023/01/05 01:02:46;;;;;;;19.30;4.75;;;14.80;66.90;;;;;;5010881;28;20528;-52
2023/01/05 01:05:13;;;;;;;18.02;4.57;;;14.80;67.00;;;;;;5002438;28;20069;-51
2023/01/05 01:07:40;;;;;;;13.32;3.83;;;14.80;67.10;;;;;;5007721;28;20406;-51
2023/01/05 01:10:13;;;;;;;10.32;3.20;;;14.80;67.10;;;;;;5011312;28;20572;-52
2023/01/05 01:12:41;;;;;;;15.10;4.60;;;14.80;67.20;;;;;;5009755;28;20046;-54
2023/01/05 01:15:10;;;;;;;17.48;3.95;;;14.80;67.10;;;;;;5012453;28;20044;-51
2023/01/05 01:17:36;;;;;;;15.55;4.50;;;14.80;67.10;;;;;;5013378;28;20060;-50
2023/01/05 01:20:07;;;;;;;18.63;3.88;;;14.80;67.30;;;;;;5008896;28;20059;-50
2023/01/05 01:22:39;;;;;;;14.88;3.95;;;14.80;67.20;;;;;;5007090;28;20049;-48
2023/01/05 01:25:07;;;;;;;17.30;4.32;;;14.80;67.20;;;;;;5010425;28;20062;-49
2023/01/05 01:27:34;;;;;;;15.25;3.38;;;14.70;67.20;;;;;;5012182;28;20441;-51
2023/01/05 01:30:04;;;;;;;12.55;3.83;;;14.70;67.20;;;;;;5012188;28;20092;-51
2023/01/05 01:32:31;;;;;;;15.15;3.70;;;14.70;67.20;;;;;;5010421;28;20571;-51
2023/01/05 01:35:00;;;;;;;14.68;4.60;;;14.70;67.20;;;;;;5007173;28;20137;-50
2023/01/05 01:37:30;;;;;;;16.90;4.72;;;14.70;67.20;;;;;;5011847;28;20042;-50
2023/01/05 01:40:02;;;;;;;15.40;4.47;;;14.70;67.20;;;;;;5010651;28;20053;-50
2023/01/05 01:42:29;;;;;;;12.73;3.97;;;14.60;67.40;;;;;;5005148;28;20305;-49
2023/01/05 01:45:00;;;;;;;16.65;4.60;;;14.60;67.30;;;;;;5012300;28;20045;-48
2023/01/05 01:47:44;;;;;;;17.77;4.35;;;14.60;67.30;;;;;;5012844;28;20061;-51
2023/01/05 01:50:37;;;;;;;18.88;4.35;;;14.60;67.20;;;;;;5010660;28;20064;-48
2023/01/05 01:53:21;;;;;;;15.18;3.60;;;14.60;67.00;;;;;;5009185;28;20037;-50
2023/01/05 01:55:54;;;;;;;16.98;4.82;;;14.60;67.30;;;;;;5012143;28;20491;-54
2023/01/05 01:58:27;;;;;;;13.68;4.38;;;14.60;67.20;;;;;;5003025;28;20545;-52
2023/01/05 02:01:00;;;;;;;13.68;4.07;;;14.50;67.20;;;;;;5008308;28;20077;-54
2023/01/05 02:03:35;;;;;;;17.50;3.53;;;14.50;67.40;;;;;;5008073;28;20510;-55
2023/01/05 02:06:06;;;;;;;18.17;4.72;;;14.50;67.50;;;;;;5010672;28;20507;-54
2023/01/05 02:08:33;;;;;;;13.05;4.32;;;14.50;67.50;;;;;;5010614;28;20050;-50
2023/01/05 02:11:26;;;;;;;16.05;3.92;;;14.40;67.50;;;;;;5007755;28;20050;-54
2023/01/05 02:14:01;;;;;;;15.25;4.70;;;14.40;67.40;;;;;;5024127;28;20046;-51
2023/01/05 02:16:42;;;;;;;17.52;3.80;;;14.40;67.70;;;;;;5011451;28;20042;-49
2023/01/05 02:19:30;;;;;;;19.30;4.10;;;14.40;67.80;;;;;;5007706;28;20045;-49
2023/01/05 02:22:20;;;;;;;12.65;3.85;;;14.30;67.80;;;;;;5006557;28;20046;-50
2023/01/05 02:25:20;;;;;;;15.50;4.63;;;14.30;67.70;;;;;;5011962;28;20728;-51
2023/01/05 02:27:58;;;;;;;10.40;3.72;;;14.30;67.90;;;;;;5009711;28;20041;-48
2023/01/05 02:31:13;;;;;;;15.20;4.88;;;14.30;68.10;;;;;;5006348;28;20042;-51
2023/01/05 02:33:56;;;;;;;17.23;4.57;;;14.30;68.00;;;;;;5005173;28;20054;-50
2023/01/05 02:36:33;;;;;;;;;;;14.30;68.00;;;;;;5010290;28;20512;-49
2023/01/05 02:39:18;;;;;;;14.13;4.43;;;14.40;68.90;;;;;;4997751;28;20405;-50
2023/01/05 02:41:58;;;;;;;13.75;4.13;;;14.30;68.10;;;;;;5009778;28;20057;-49
2023/01/05 02:44:32;;;;;;;16.05;4.63;;;14.30;68.20;;;;;;5011485;28;20065;-47
2023/01/05 02:47:23;;;;;;;13.50;3.65;;;14.30;68.30;;;;;;5009432;28;20046;-51
2023/01/05 02:50:19;;;;;;;11.57;3.95;;;14.30;68.30;;;;;;5003244;28;20073;-53
2023/01/05 02:53:05;;;;;;;15.85;4.57;;;14.30;68.40;;;;;;5009894;28;20081;-48
2023/01/05 02:55:37;;;;;;;15.13;4.13;;;14.30;68.40;;;;;;5005563;28;20491;-48
2023/01/05 02:58:22;;;;;;;12.52;3.75;;;14.30;68.60;;;;;;5005020;28;20501;-51
2023/01/05 03:00:55;;;;;;;12.25;3.42;;;14.30;68.60;;;;;;5009383;28;20042;-50
2023/01/05 03:03:32;;;;;;;16.65;3.63;;;14.30;68.80;;;;;;5019042;28;20050;-51
2023/01/05 03:06:19;;;;;;;17.73;4.78;;;14.30;69.10;;;;;;5002739;28;20130;-49
2023/01/05 03:08:54;;;;;;;16.63;4.35;;;14.30;68.90;;;;;;5004724;28;20144;-50
2023/01/05 03:14:26;;;;;;;15.52;4.07;;;14.30;68.90;;;;;;5001583;28;20241;-51
2023/01/05 03:17:01;;;;;;;17.55;5.70;;;14.30;68.90;;;;;;5004493;28;20046;-49
2023/01/05 03:19:43;;;;;;;18.17;4.00;;;14.30;69.00;;;;;;5009047;28;20566;-50
2023/01/05 03:37:21;;;;;;;14.18;4.93;;;14.30;68.70;;;;;;5010079;28;20056;-53
2023/01/05 03:39:48;;;;;;;10.18;3.15;;;14.30;68.90;;;;;;5008692;28;20485;-53
2023/01/05 03:42:15;;;;;;;12.23;4.28;;;14.20;68.90;;;;;;5008808;28;20546;-53
2023/01/05 03:44:48;;;;;;;11.25;4.43;;;14.30;68.90;;;;;;5009199;28;20042;-50
2023/01/05 03:47:19;;;;;;;14.75;4.65;;;14.30;69.20;;;;;;5007079;28;20038;-52
2023/01/05 03:49:49;;;;;;;15.45;4.05;;;14.30;69.30;;;;;;5009274;28;20038;-53
2023/01/05 03:52:16;;;;;;;16.83;3.72;;;14.20;69.20;;;;;;5007961;28;20092;-50
2023/01/05 03:54:50;;;;;;;15.52;4.35;;;14.20;69.40;;;;;;5007885;28;20050;-53
2023/01/05 03:57:17;;;;;;;14.98;3.60;;;14.20;69.40;;;;;;5000515;28;20065;-52
2023/01/05 03:59:47;;;;;;;10.73;3.83;;;14.20;69.50;;;;;;5008519;28;20140;-50
2023/01/05 04:02:15;;;;;;;14.93;4.15;;;14.10;69.50;;;;;;5007972;28;20049;-52
2023/01/05 04:04:45;;;;;;;14.15;3.97;;;14.10;69.60;;;;;;5007817;28;20049;-52
2023/01/05 04:07:21;;;;;;;14.85;4.40;;;14.10;69.70;;;;;;5009753;28;20037;-51
2023/01/05 04:09:50;;;;;;;12.15;3.10;;;14.10;69.80;;;;;;5006122;28;20050;-52
2023/01/05 04:12:25;;;;;;;17.17;4.47;;;14.10;70.10;;;;;;4998090;28;20042;-49
2023/01/05 04:14:55;;;;;;;10.50;4.03;;;14.00;70.10;;;;;;5006841;28;20755;-49
2023/01/05 04:17:22;;;;;;;9.65;3.42;;;14.10;70.20;;;;;;5007972;28;20132;-51
2023/01/05 04:19:51;;;;;;;17.83;4.75;;;14.00;70.20;;;;;;5004110;28;20046;-50
2023/01/05 04:22:18;;;;;;;13.18;3.38;;;14.10;70.20;;;;;;5006828;28;20081;-51
2023/01/05 04:24:53;;;;;;;13.40;4.10;;;14.10;70.20;;;;;;5008266;28;20050;-52
2023/01/05 04:27:23;;;;;;;12.48;4.78;;;14.10;70.20;;;;;;5005740;28;20042;-51
2023/01/05 04:29:53;;;;;;;16.88;5.05;;;14.10;70.20;;;;;;5001134;28;20112;-52
2023/01/05 04:32:22;;;;;;;17.67;4.45;;;14.10;70.30;;;;;;5005690;28;20034;-51
2023/01/05 04:34:54;;;;;;;12.85;4.22;;;14.10;70.10;;;;;;5004837;28;20065;-50
2023/01/05 04:37:23;;;;;;;14.23;4.43;;;14.10;70.10;;;;;;5010294;28;20400;-50
2023/01/05 04:39:54;;;;;;;17.70;4.63;;;14.10;70.10;;;;;;5006625;28;20046;-53
2023/01/05 04:42:23;;;;;;;14.38;3.85;;;14.10;70.10;;;;;;5007580;28;20281;-52
2023/01/05 04:45:00;;;;;;;13.73;4.50;;;14.10;70.20;;;;;;5008197;28;20050;-53
2023/01/05 04:47:29;;;;;;;12.45;4.30;;;14.10;70.10;;;;;;5006335;28;20034;-52
2023/01/05 04:49:59;;;;;;;14.75;3.75;;;14.10;70.10;;;;;;5001517;28;20046;-50
2023/01/05 04:52:26;;;;;;;15.93;4.80;;;14.10;70.10;;;;;;5007673;28;20130;-52
2023/01/05 04:54:55;;;;;;;16.73;5.38;;;14.10;70.00;;;;;;5008034;28;20041;-53
2023/01/05 04:57:25;;;;;;;14.25;3.97;;;14.10;70.10;;;;;;5008786;28;20088;-49
2023/01/05 04:59:56;;;;;;;12.98;4.88;;;14.10;70.10;;;;;;5006219;28;20569;-53
2023/01/05 05:02:27;;;;;;;20.90;5.35;;;14.10;69.90;;;;;;5007291;28;20121;-54
2023/01/05 05:05:02;;;;;;;17.98;5.35;;;14.10;69.80;;;;;;5007643;28;20046;-51
2023/01/05 05:07:36;;;;;;;16.10;4.72;;;14.10;69.70;;;;;;5007713;28;20042;-53
2023/01/05 05:10:07;;;;;;;15.82;4.60;;;14.10;69.80;;;;;;5006679;28;20088;-51
2023/01/05 05:12:40;;;;;;;18.67;5.40;;;14.10;69.80;;;;;;5006753;28;20116;-53
2023/01/05 05:15:07;;;;;;;13.18;4.07;;;14.00;69.90;;;;;;5009083;28;20034;-50
2023/01/05 05:17:36;;;;;;;16.02;5.40;;;14.00;70.10;;;;;;5008471;28;20069;-50
2023/01/05 05:20:07;;;;;;;16.48;5.43;;;14.00;70.10;;;;;;5006213;28;20061;-55
2023/01/05 05:22:35;;;;;;;16.52;4.88;;;14.00;70.20;;;;;;5019610;28;20137;-52
2023/01/05 05:25:02;;;;;;;16.45;4.70;;;14.00;70.40;;;;;;5005522;28;20404;-52
2023/01/05 05:27:30;;;;;;;15.07;6.00;;;14.00;70.40;;;;;;5000596;28;20142;-51
2023/01/05 05:29:56;;;;;;;17.15;6.53;;;14.00;70.50;;;;;;5007292;28;20042;-52
2023/01/05 05:32:23;;;;;;;16.40;5.38;;;14.00;70.50;;;;;;5002469;28;20089;-50
2023/01/05 05:34:50;;;;;;;16.73;5.18;;;14.00;70.60;;;;;;5010646;28;20061;-51
2023/01/05 05:37:16;;;;;;;14.55;5.38;;;13.90;70.80;;;;;;5009355;28;20121;-50
2023/01/05 05:39:43;;;;;;;18.63;6.00;;;13.90;71.00;;;;;;5010965;28;20064;-53
2023/01/05 05:42:10;;;;;;;13.10;5.15;;;13.90;71.20;;;;;;5011017;28;20189;-50
2023/01/05 05:44:36;;;;;;;19.15;5.05;;;13.90;71.10;;;;;;5010713;28;20516;-49
2023/01/05 05:47:03;;;;;;;15.88;4.75;;;13.90;71.10;;;;;;5007836;28;20052;-50
2023/01/05 05:49:30;;;;;;;17.05;4.80;;;13.90;71.20;;;;;;5011749;28;20068;-52
2023/01/05 05:51:56;;;;;;;17.90;6.07;;;13.80;71.20;;;;;;5010114;28;20100;-51
2023/01/05 05:54:23;;;;;;;18.45;5.45;;;13.80;71.20;;;;;;5011459;28;20041;-51
2023/01/05 05:56:49;;;;;;;18.38;5.70;;;13.80;71.20;;;;;;5011895;28;20042;-51
2023/01/05 05:59:16;;;;;;;18.75;4.90;;;13.80;71.20;;;;;;5011590;28;20046;-53
2023/01/05 06:01:45;;;;;;;16.58;4.72;;;13.80;71.30;;;;;;5008201;28;20125;-51
2023/01/05 06:04:12;;;;;;;20.75;6.03;;;13.80;71.20;;;;;;5009325;28;20071;-54
2023/01/05 06:06:39;;;;;;;17.50;4.97;;;13.80;71.30;;;;;;5005439;28;20046;-53
2023/01/05 06:09:06;;;;;;;15.88;5.55;;;13.80;72.00;;;;;;5010669;28;20184;-52
2023/01/05 06:11:33;;;;;;;22.20;6.00;;;13.80;71.30;;;;;;5003994;28;20046;-55
2023/01/05 06:14:01;;;;;;;19.38;6.30;;;13.80;71.30;;;;;;5007295;28;20046;-49
2023/01/05 06:16:28;;;;;;;16.23;5.30;;;13.80;71.30;;;;;;5010213;28;20403;-54
2023/01/05 06:18:55;;;;;;;18.98;5.43;;;13.80;71.20;;;;;;5000211;28;20133;-55
2023/01/05 06:21:22;;;;;;;13.60;4.63;;;13.80;71.10;;;;;;5007932;28;20056;-54
2023/01/05 06:23:49;;;;;;;16.98;4.63;;;13.90;71.20;;;;;;5006799;28;20129;-54
2023/01/05 06:26:15;;;;;;;17.38;4.72;;;13.90;71.20;;;;;;5009115;28;20120;-54
2023/01/05 06:28:42;;;;;;;14.38;4.90;;;13.90;71.20;;;;;;4991567;28;20718;-52
2023/01/05 06:31:09;;;;;;;20.23;5.85;;;13.90;71.20;;;;;;5006059;28;20042;-53
2023/01/05 06:33:35;;;;;;;18.00;6.00;;;13.90;71.10;;;;;;4994560;28;20537;-53
2023/01/05 06:36:02;;;;;;;19.85;5.47;;;13.90;71.00;;;;;;5008616;28;20037;-54
2023/01/05 06:38:29;;;;;;;16.33;5.15;;;13.90;71.00;;;;;;5008873;28;20042;-56
2023/01/05 06:40:56;;;;;;;20.23;6.60;;;13.90;71.00;;;;;;4998707;28;20050;-54
2023/01/05 06:43:23;;;;;;;16.27;4.93;;;14.00;70.90;;;;;;5000644;28;20117;-51
2023/01/05 06:45:51;;;;;;;15.20;5.30;;;14.00;70.80;;;;;;5008468;28;20042;-54
2023/01/05 06:48:18;;;;;;;12.20;4.25;;;14.00;70.80;;;;;;5008140;28;20052;-51
2023/01/05 06:50:45;;;;;;;17.27;4.90;;;14.00;70.80;;;;;;5006608;28;20121;-56
2023/01/05 06:53:11;;;;;;;11.68;4.70;;;14.00;70.70;;;;;;5009571;28;20046;-54
2023/01/05 06:55:38;;;;;;;18.65;4.95;;;14.00;70.60;;;;;;5008756;28;20042;-51
2023/01/05 06:58:04;;;;;;;17.17;5.03;;;14.00;70.50;;;;;;5009006;28;20046;-51
2023/01/05 07:00:33;;;;;;;12.50;4.07;;;14.10;70.50;;;;;;5005556;28;20050;-51
2023/01/05 07:03:00;;;;;;;20.30;4.90;;;14.00;70.50;;;;;;5004378;28;20100;-52
2023/01/05 07:05:26;;;;;;;16.63;6.28;;;14.00;70.40;;;;;;5010411;28;20124;-54
2023/01/05 07:07:54;;;;;;;15.00;5.28;;;14.00;70.40;;;;;;5009409;28;20129;-55
2023/01/05 07:10:21;;;;;;;17.08;5.13;;;14.00;70.40;;;;;;5009611;28;20042;-53
2023/01/05 07:12:48;;;;;;;17.77;5.47;;;14.00;70.40;;;;;;5013163;28;20056;-54
2023/01/05 07:15:18;;;;;;;14.13;4.72;;;14.00;70.40;;;;;;5010760;28;20044;-53
2023/01/05 07:17:44;;;;;;;16.75;5.43;;;14.00;70.40;;;;;;5009985;28;20053;-52
2023/01/05 07:20:13;;;;;;;20.20;6.38;;;14.00;70.30;;;;;;5004767;28;20046;-52
2023/01/05 07:22:40;;;;;;;17.80;5.40;;;14.00;70.30;;;;;;5010348;28;20548;-52
2023/01/05 07:25:07;;;;;;;17.15;4.97;;;14.00;70.30;;;;;;5010608;28;20700;-53
2023/01/05 07:27:34;;;;;;;18.02;5.85;;;14.00;70.40;;;;;;5009000;28;20491;-51
2023/01/05 07:30:01;;;;;;;16.08;4.70;;;14.00;70.30;;;;;;5000935;28;20050;-51
2023/01/05 07:32:27;;;;;;;23.33;6.18;;;14.00;70.30;;;;;;5010638;28;20044;-53
2023/01/05 07:34:54;;;;;;;20.30;5.03;;;14.00;70.30;;;;;;5011312;28;20498;-56
2023/01/05 07:37:23;;;;;;;14.52;4.60;;;14.00;70.20;;;;;;5001574;28;20060;-54
2023/01/05 07:39:51;;;;;;;18.85;6.20;;;14.00;70.20;;;;;;5002869;28;20100;-52
2023/01/05 07:42:18;;;;;;;19.63;5.25;;;14.00;70.10;;;;;;5010107;28;20109;-56
2023/01/05 07:44:46;;;;;;;17.20;5.47;;;14.00;70.00;;;;;;5009989;28;20042;-51
2023/01/05 07:47:14;;;;;;;24.17;5.72;;;13.90;70.00;;;;;;5009321;28;20050;-54
2023/01/05 07:49:41;;;;;;;18.83;5.78;;;14.00;70.10;;;;;;5006684;28;20046;-54
2023/01/05 07:52:08;;;;;;;20.35;5.75;;;14.00;70.10;;;;;;5010683;28;20052;-54
2023/01/05 07:54:35;;;;;;;19.90;5.28;;;14.00;70.10;;;;;;5010062;28;20113;-55
2023/01/05 07:57:02;;;;;;;20.45;6.07;;;14.00;70.10;;;;;;5007486;28;20538;-53
2023/01/05 07:59:29;;;;;;;17.10;5.25;;;14.00;70.10;;;;;;5007143;28;20114;-53
2023/01/05 08:01:55;;;;;;;18.08;6.25;;;14.00;70.10;;;;;;5010561;28;20084;-52
2023/01/05 08:04:22;;;;;;;16.95;5.43;;;14.00;70.00;;;;;;5009649;28;20038;-51
2023/01/05 08:06:51;;;;;;;17.85;6.55;;;14.00;70.10;;;;;;5009935;28;20052;-53
2023/01/05 08:12:03;;;;;;;23.67;6.85;;;14.00;70.20;;;;;;5001505;28;20043;-52
2023/01/05 08:14:30;;;;;;;16.88;6.22;;;14.00;70.20;;;;;;5016335;28;20049;-55
2023/01/05 08:16:59;;;;;;;14.40;5.00;;;14.00;70.20;;;;;;5006371;28;20053;-55
2023/01/05 08:19:26;;;;;;;16.00;5.72;;;14.00;70.20;;;;;;5005210;28;20121;-53
2023/01/05 08:21:52;;;;;;;17.92;6.63;;;14.00;70.20;;;;;;5010483;28;20052;-52
2023/01/05 08:24:19;;;;;;;17.23;5.78;;;14.00;70.10;;;;;;5010281;28;20046;-55
2023/01/05 08:26:48;;;;;;;22.83;6.68;;;14.00;70.10;;;;;;5006337;28;20046;-54
2023/01/05 08:29:15;;;;;;;18.33;5.93;;;14.00;70.00;;;;;;5010300;28;20099;-55
2023/01/05 08:31:42;;;;;;;16.88;6.22;;;14.00;70.10;;;;;;5009898;28;20558;-54
2023/01/05 08:34:08;;;;;;;21.40;6.68;;;14.00;70.10;;;;;;5006971;28;20069;-53
2023/01/05 08:36:35;;;;;;;15.27;5.93;;;14.00;70.10;;;;;;5006808;28;20048;-55
2023/01/05 08:39:02;;;;;;;20.17;7.05;;;14.00;70.10;;;;;;5007923;28;20042;-54
2023/01/05 08:41:34;;;;;;;20.63;5.55;;;14.00;70.20;;;;;;5010459;28;20046;-52
2023/01/05 08:44:11;;;;;;;20.88;6.38;;;14.00;70.00;;;;;;5005504;28;20046;-53
2023/01/05 08:46:38;;;;;;;21.45;6.28;;;14.00;70.10;;;;;;5009293;28;20042;-54
2023/01/05 08:49:08;;;;;;;18.88;5.95;;;14.00;70.10;;;;;;5009861;28;20045;-54
2023/01/05 08:51:37;;;;;;;21.33;6.00;;;14.00;70.20;;;;;;5007098;28;20049;-54
2023/01/05 08:54:04;;;;;;;15.73;5.47;;;14.00;70.10;;;;;;5003883;28;20506;-55
2023/01/05 08:56:31;;;;;;;22.00;6.72;;;14.00;70.20;;;;;;5010287;28;20123;-55
2023/01/05 08:59:10;;;;;;;19.45;6.45;;;14.00;70.20;;;;;;5009963;28;20116;-53
2023/01/05 09:01:39;;;;;;;20.35;6.50;;;14.00;70.20;;;;;;5010021;28;20053;-55
2023/01/05 09:04:07;;;;;;;18.25;6.03;;;14.10;70.20;;;;;;5007154;28;20046;-51
2023/01/05 09:06:34;;;;;;;19.75;5.72;;;14.10;70.00;;;;;;5012042;28;20054;-52
2023/01/05 09:09:00;;;;;;;24.08;6.28;;;14.10;70.00;;;;;;5013743;28;20121;-53
2023/01/05 09:11:27;;;;;;;16.65;7.05;;;14.10;70.00;;;;;;5008470;28;20046;-55
2023/01/05 09:13:59;;;;;;;21.95;6.05;;;14.10;70.00;;;;;;5014351;28;20049;-55
2023/01/05 09:16:29;;;;;;;20.53;6.40;;;14.10;69.90;;;;;;5006818;28;20153;-55
2023/01/05 09:19:15;;;;;;;16.55;5.63;;;14.10;69.90;;;;;;5012530;28;20049;-55
2023/01/05 09:21:43;;;;;;;17.88;6.07;;;14.10;70.40;;;;;;5011013;28;20077;-52
2023/01/05 09:24:11;;;;;;;17.30;4.95;;;14.20;69.80;;;;;;5013298;28;20141;-55
2023/01/05 09:26:41;;;;;;;15.70;5.35;;;14.20;69.80;;;;;;5013806;28;20104;-55
2023/01/05 09:29:09;;;;;;;22.17;6.75;;;14.20;69.70;;;;;;5011198;28;20065;-55
2023/01/05 09:31:36;;;;;;;17.42;5.70;;;14.20;69.70;;;;;;5005200;28;20111;-55
2023/01/05 09:34:03;;;;;;;17.13;5.18;;;14.20;69.70;;;;;;5008428;28;20059;-54
2023/01/05 09:36:31;;;;;;;20.55;6.68;;;14.20;69.70;;;;;;5013592;28;20049;-54
2023/01/05 09:38:58;;;;;;;24.85;6.95;;;14.30;69.70;;;;;;5012921;28;20096;-55
2023/01/05 09:41:32;;;;;;;16.85;6.10;;;14.30;69.60;;;;;;5008223;28;20044;-55
2023/01/05 09:44:10;;;;;;;20.48;5.75;;;14.30;69.60;;;;;;5013104;28;20050;-54
2023/01/05 09:46:44;;;;;;;26.75;6.18;;;14.30;69.40;;;;;;5013576;28;20525;-55
2023/01/05 09:49:14;;;;;;;19.67;5.13;;;14.30;69.50;;;;;;5008738;28;20081;-52
2023/01/05 09:51:42;;;;;;;23.65;5.63;;;14.30;69.40;;;;;;5007908;28;20041;-54
2023/01/05 09:54:15;;;;;;;20.45;5.35;;;14.40;69.50;;;;;;5012955;28;20120;-55
2023/01/05 09:56:45;;;;;;;24.92;6.38;;;14.40;69.30;;;;;;5012698;28;20038;-55
2023/01/05 09:59:42;;;;;;;20.15;5.40;;;14.40;69.30;;;;;;5008038;28;20113;-51
2023/01/05 10:02:33;;;;;;;18.35;5.38;;;14.50;69.20;;;;;;5010820;28;20455;-56
2023/01/05 10:05:03;;;;;;;18.83;5.85;;;14.40;69.10;;;;;;5009666;28;20056;-56
2023/01/05 10:07:48;;;;;;;14.75;5.95;;;14.50;69.10;;;;;;5008573;28;20053;-52
2023/01/05 10:10:37;;;;;;;15.18;5.38;;;14.50;69.10;;;;;;5006189;28;20054;-55
2023/01/05 10:13:05;;;;;;;19.85;4.88;;;14.50;68.90;;;;;;5009583;28;20497;-55
2023/01/05 10:15:42;;;;;;;24.45;6.07;;;14.50;69.10;;;;;;5013441;28;20072;-53
2023/01/05 10:18:12;;;;;;;19.02;5.93;;;14.60;68.90;;;;;;5005448;28;20042;-55
2023/01/05 10:20:44;;;;;;;20.17;6.55;;;14.60;69.00;;;;;;5009740;28;20048;-55
2023/01/05 10:23:17;;;;;;;25.00;5.38;;;14.60;68.70;;;;;;5011823;28;20449;-56
2023/01/05 10:25:53;;;;;;;12.57;5.47;;;14.60;68.90;;;;;;5004922;28;20077;-55
2023/01/05 10:28:59;;;;;;;19.60;7.15;;;14.60;68.80;;;;;;5004691;28;20046;-55
2023/01/05 10:31:32;;;;;;;18.52;5.90;;;14.60;68.50;;;;;;5004755;28;20050;-55
2023/01/05 10:34:12;;;;;;;15.45;5.43;;;14.60;68.80;;;;;;5011258;28;20558;-55
2023/01/05 10:36:59;;;;;;;20.80;5.95;;;14.70;68.70;;;;;;5009329;28;20037;-56
2023/01/05 10:40:06;;;;;;;22.60;5.45;;;14.70;68.80;;;;;;5006080;28;20121;-56
2023/01/05 10:42:46;;;;;;;20.92;6.30;;;14.70;68.40;;;;;;5012033;28;20437;-56
2023/01/05 10:45:15;;;;;;;19.60;5.68;;;14.80;68.30;;;;;;5011585;28;20054;-56
2023/01/05 10:47:44;;;;;;;19.33;6.00;;;14.80;68.30;;;;;;5006654;28;20097;-55
2023/01/05 10:50:33;;;;;;;20.23;5.70;;;14.80;68.30;;;;;;5010450;28;20067;-55
2023/01/05 10:53:15;;;;;;;20.83;6.40;;;14.80;68.00;;;;;;5011566;28;20060;-55
2023/01/05 10:56:03;;;;;;;15.48;5.93;;;14.80;68.00;;;;;;5007327;28;20038;-54
2023/01/05 10:58:35;;;;;;;15.77;5.05;;;14.80;68.60;;;;;;5004751;28;20042;-55
2023/01/05 11:01:14;;;;;;;20.20;5.85;;;14.80;68.10;;;;;;5026880;23;20457;-54
2023/01/05 11:03:44;;;;;;;18.30;5.45;;;14.80;68.00;;;;;;5025004;28;20049;-53
2023/01/05 11:06:33;;;;;;;16.75;5.43;;;14.90;68.30;;;;;;5009163;28;20422;-50
2023/01/05 11:09:17;;;;;;;22.25;5.85;;;14.90;68.30;;;;;;5026754;28;20502;-51
2023/01/05 11:11:59;;;;;;;17.63;6.40;;;15.00;67.70;;;;;;5012350;28;20096;-53
2023/01/05 11:14:28;;;;;;;18.33;5.97;;;15.00;67.50;;;;;;5021557;28;20048;-53
2023/01/05 11:17:02;;;;;;;20.27;6.07;;;15.00;67.70;;;;;;5029559;28;20524;-48
2023/01/05 11:19:33;;;;;;;15.70;5.95;;;15.00;67.70;;;;;;5019171;28;20046;-53
2023/01/05 11:22:00;;;;;;;16.40;5.28;;;15.00;67.50;;;;;;5010752;28;20053;-53
2023/01/05 11:24:36;;;;;;;19.67;6.57;;;15.10;67.60;;;;;;5011145;28;20072;-54
2023/01/05 11:27:22;;;;;;;17.13;6.32;;;15.10;67.20;;;;;;5014298;28;20041;-53
2023/01/05 11:30:14;;;;;;;16.42;6.40;;;15.10;67.10;;;;;;5024240;28;20038;-54
2023/01/05 11:32:45;;;;;;;13.55;5.68;;;15.10;67.10;;;;;;5014177;28;20042;-53
2023/01/05 11:35:32;;;;;;;10.90;5.05;;;15.20;67.40;;;;;;5022233;28;20045;-50
2023/01/05 11:37:59;;;;;;;11.98;5.00;;;15.20;67.20;;;;;;5023418;28;20121;-52
2023/01/05 11:40:29;;;;;;;22.05;6.53;;;15.20;67.30;;;;;;5029160;28;20060;-53
2023/01/05 11:42:58;;;;;;;16.98;5.88;;;15.20;67.00;;;;;;5011232;28;20105;-53
2023/01/05 11:45:44;;;;;;;18.92;5.45;;;15.30;67.00;;;;;;5017054;28;20044;-54
2023/01/05 11:48:18;;;;;;;16.90;7.03;;;15.30;66.30;;;;;;5022762;28;20066;-53
2023/01/05 11:50:50;;;;;;;15.55;5.60;;;15.30;66.50;;;;;;5009716;28;20042;-51
2023/01/05 11:53:22;;;;;;;;;;;15.30;67.00;;;;;;5018531;28;20033;-52
2023/01/05 11:56:22;;;;;;;16.20;5.40;;;15.40;67.00;;;;;;5029530;28;19925;-50
2023/01/05 11:58:56;;;;;;;17.38;5.53;;;15.40;66.30;;;;;;5002786;28;20052;-49
2023/01/05 12:01:32;;;;;;;19.23;5.78;;;15.40;66.60;;;;;;5007976;28;20045;-54
2023/01/05 12:04:03;;;;;;;16.25;5.03;;;15.50;66.50;;;;;;5011115;28;20565;-49
2023/01/05 12:06:51;;;;;;;11.48;5.35;;;15.50;66.40;;;;;;5012244;28;20053;-49
2023/01/05 12:09:29;;;;;;;12.48;4.78;;;15.60;66.30;;;;;;5008009;28;20505;-50
2023/01/05 12:12:22;;;;;;;18.38;5.53;;;15.60;65.50;;;;;;5008240;28;20038;-52
2023/01/05 12:15:19;;;;;;;10.40;4.70;;;15.60;65.00;;;;;;5000605;28;20396;-54
2023/01/05 12:17:58;;;;;;;14.40;5.70;;;15.60;64.80;;;;;;5009754;28;20475;-54
2023/01/05 12:20:27;;;;;;;19.77;5.15;;;15.60;64.60;;;;;;5005230;28;20710;-54
2023/01/05 12:23:32;;;;;;;10.55;4.63;;;15.50;64.90;;;;;;5007417;28;20050;-55
2023/01/05 12:26:20;;;;;;;12.45;4.50;;;15.40;64.20;;;;;;5007320;28;20038;-52
2023/01/05 12:29:08;;;;;;;12.20;4.32;;;15.40;64.30;;;;;;5009445;28;20084;-52
2023/01/05 12:32:15;;;;;;;16.38;5.35;;;15.30;64.50;;;;;;5009141;28;20541;-53
2023/01/05 12:35:33;;;;;;;17.30;5.72;;;15.20;64.60;;;;;;5009751;28;20050;-51
2023/01/05 12:38:13;;;;;;;12.55;4.40;;;15.20;64.40;;;;;;4987865;28;20129;-51
2023/01/05 12:40:49;;;;;;;11.98;4.78;;;15.20;64.40;;;;;;5009662;28;20458;-53
2023/01/05 12:43:44;;;;;;;11.02;5.13;;;15.10;65.00;;;;;;5015152;28;20033;-52
2023/01/05 12:46:35;;;;;;;15.55;5.82;;;15.10;64.30;;;;;;5016315;28;20046;-54
2023/01/05 12:49:10;;;;;;;17.88;6.10;;;15.10;64.70;;;;;;5011668;28;20050;-53
2023/01/05 12:51:43;;;;;;;14.40;5.57;;;15.10;64.70;;;;;;5014401;28;20073;-51
2023/01/05 12:54:24;;;;;;;16.15;5.30;;;15.10;64.60;;;;;;5012898;28;20038;-53
2023/01/05 12:57:00;;;;;;;16.02;5.53;;;15.10;64.40;;;;;;5009936;28;20052;-53
2023/01/05 12:59:50;;;;;;;10.93;4.88;;;15.00;64.50;;;;;;5013288;28;20042;-50
2023/01/05 13:02:28;;;;;;;10.93;5.07;;;15.10;64.40;;;;;;5022379;28;20521;-49
2023/01/05 13:05:26;;;;;;;10.20;4.53;;;15.10;64.10;;;;;;5001625;28;20387;-53
2023/01/05 13:08:05;;;;;;;12.05;5.15;;;15.10;63.90;;;;;;5011395;28;20108;-54
2023/01/05 13:10:38;;;;;;;12.90;4.53;;;15.10;63.70;;;;;;5012567;28;20503;-50
2023/01/05 13:13:12;;;;;;;11.25;4.32;;;15.10;64.20;;;;;;5008763;28;20046;-50
2023/01/05 13:15:44;;;;;;;12.43;5.28;;;15.10;64.00;;;;;;5008557;28;20073;-49
2023/01/05 13:18:14;;;;;;;;;;;15.10;64.20;;;;;;5015367;28;20064;-52
2023/01/05 13:20:45;;;;;;;10.63;4.32;;;15.20;64.60;;;;;;5019978;28;19925;-53
2023/01/05 13:23:27;;;;;;;10.18;4.25;;;15.20;64.50;;;;;;5019663;28;20449;-51
2023/01/05 13:26:08;;;;;;;14.02;4.80;;;15.20;64.30;;;;;;5010759;28;20049;-50
2023/01/05 13:28:35;;;;;;;15.52;5.57;;;15.20;64.30;;;;;;5018843;28;20112;-53
2023/01/05 13:31:11;;;;;;;17.48;5.88;;;15.10;64.50;;;;;;5019340;28;20133;-50
2023/01/05 13:34:12;;;;;;;14.52;5.82;;;15.20;64.30;;;;;;5019639;28;20037;-51
2023/01/05 13:36:38;;;;;;;24.33;6.88;;;15.20;64.60;;;;;;4998016;28;20108;-50
2023/01/05 13:39:05;;;;;;;15.02;6.18;;;15.10;64.80;;;;;;5029608;28;20472;-50
2023/01/05 13:41:50;;;;;;;19.30;5.95;;;15.10;65.00;;;;;;5032097;28;20457;-52